Standish, Michigan
Current Conditions -  °F | °C
As of 9:31 AM on Thursday 30 Oct 2014 (Local Time) from KIKW Reporting Station
Overcast Overcast  
Wind Chill: 37°   Ceiling: 3800
Heat Index: 37°   Visibility: 10mi
Dew Point: 36°   Wind: 0mph
Humidity: 97%   Direction: NA
Pressure: 30.12"   Gusts: NA
Location:  43.98°N, 83.96°W
Report Text: KIKW 301331Z AUTO 00000KT 10SM OVC038 03/02 A3012 RMK AO2 T00260022
Loading
Personal Weather Stations






























Interactive Weather Map New forecast layout! Learn more

10-Day Weather Forecast

Advertisements
Track Severe Weather on mobile